ADDS TAF Board (Experimental) INFO Settings
IDs:

KMCI - Kansas City Intl, MO, US

Issued at 1728 UTC 08 Feb 2016
Updated at: 1902 UTC 08 Feb 2016
Time1853Z 08/20Z 08/21Z 08/22Z 08/23Z 09/00Z 09/01Z 09/02Z 09/03Z 09/04Z 09/05Z 09/06Z 09/07Z 09/08Z
Type OBS PRVL PRVL PRVL PRVL PRVL PRVL PRVL PRVL PRVL PRVL PRVL PRVL PRVL
VIS 9 >6 >6 >6 >6 >6 >6 >6 >6 >6 >6 >6 >6 >6
CIG 37 40 40 40 40 40 40 40 25 25 25 25 25 25
Cover OVC OVC OVC OVC BKN BKN BKN BKN BKN BKN BKN BKN BKN BKN
FltCat VFR VFR VFR VFR VFR VFR VFR VFR MVFR MVFR MVFR MVFR MVFR MVFR
WX -SN -SHSN -SHSN -SHSN -- -- -- -- -- -- -- -- -- --
WDir 320 330 330 330 330 330 330 330 330 330 330 330 330 330
WSpd 19 26 26 26 18 18 18 18 14 14 14 14 14 14
WGst 27 38 38 38 24 24 24 24 -- -- -- -- -- --
R01/19
XWnd 15 18 18 18 12 12 12 12 10 10 10 10 10 10
XGst 22 26 26 26 16 16 16 16 -- -- -- -- -- --
HWnd 11 19 19 19 13 13 13 13 10 10 10 10 10 10
HGst 16 28 28 28 18 18 18 18 -- -- -- -- -- --
R09/27
XWnd 13 21 21 21 15 15 15 15 11 11 11 11 11 11
XGst 19 31 31 31 19 19 19 19 -- -- -- -- -- --
HWnd -14 -15 -15 -15 -11 -11 -11 -11 -8 -8 -8 -8 -8 -8
HGst -19 -22 -22 -22 -14 -14 -14 -14 -- -- -- -- -- --

NOTE: TEMPO conditions in [brackets]. Keep in mind TEMPO conditions might be better (lower impact) than prevailing conditions.

Raw TAF
KMCI 081728Z 0818/0918 33026G38KT P6SM -SHSN OVC040
  FM082300 33018G24KT P6SM BKN040
  FM090300 33014KT P6SM BKN025
  FM091400 33015G23KT P6SM SCT050


Raw METAR
KMCI 081853Z 32019G27KT 9SM -SN BKN037 OVC250 M01/M08 A3005 RMK AO2 PK WND 34038/1801 SLP184 P0000 T10061078
KMCI 081753Z 31020G34KT 9SM -SN FEW025 BKN037 OVC047 M01/M07 A3005 RMK AO2 PK WND 31034/1753 SLP184 931000 P0000 60000 T10061067 10006 21022 50009
KMCI 081703Z 32016G31KT 6SM -SN BKN030 OVC038 M02/M06 A3006 RMK AO2 PK WND 33031/1654 P0000 T10171056
KMCI 081653Z 33020G27KT 2SM R19R/6000VP6000FT -SN OVC034 M02/M06 A3006 RMK AO2 PK WND 33035/1616 SLP186 P0000 T10171056
KMCI 081649Z 34018G27KT 1 3/4SM R19R/6000VP6000FT -SN OVC034 M02/M06 A3006 RMK AO2 PK WND 33035/1616 TWR VIS 2 P0000

METAR Board
Radar Display
Forecast Discussion

TAF Board Legend

Potential Impact
Threat None Slight Moderate High
Visibility (sm) ≥5.1 5.1>X≥3 3>X≥1 <1
Ceiling (100 ft) ≥30.1 30.1>X≥10 10>X≥5 <5
Wind Speed (kt) <10 10≤X<20 20≤X<30 ≥30
Wind Gust (kt) <15 15≤X<25 25≤X<35 ≥35
Weather No Wx Reported VCTS,-TS,-FZRA,SN TS,FZRA +TS,+FZRA,+SN